createdAt,value
2022-08-19T00:00:34.228Z,54.703125
2022-08-19T00:01:34.224Z,54.783203125
2022-08-19T00:02:36.982Z,54.7841796875
2022-08-19T00:03:34.078Z,54.767578125
2022-08-19T00:04:34.145Z,54.7451171875
2022-08-19T00:05:34.306Z,54.7587890625
2022-08-19T00:06:34.030Z,54.83984375
2022-08-19T00:07:34.517Z,54.7021484375
2022-08-19T00:08:33.858Z,54.79296875
2022-08-19T00:09:33.944Z,54.849609375
2022-08-19T00:10:34.229Z,54.8291015625
2022-08-19T00:11:33.937Z,54.8193359375
2022-08-19T00:12:33.990Z,54.7275390625
2022-08-19T00:13:36.925Z,54.9326171875
2022-08-19T00:14:33.962Z,55.0341796875
2022-08-19T00:15:34.298Z,55.0458984375
2022-08-19T00:16:34.229Z,55.0361328125
2022-08-19T00:17:34.069Z,55.15234375
2022-08-19T00:18:33.954Z,55.025390625
2022-08-19T00:19:33.969Z,55.015625
2022-08-19T00:20:34.301Z,55.001953125
2022-08-19T00:21:34.002Z,54.9697265625
2022-08-19T00:22:33.974Z,54.9013671875
2022-08-19T00:23:34.046Z,54.908203125
2022-08-19T00:24:36.966Z,54.72265625
2022-08-19T00:25:34.233Z,54.814453125
2022-08-19T00:26:33.937Z,54.744140625
2022-08-19T00:27:33.855Z,54.9130859375
2022-08-19T00:28:33.862Z,54.990234375
2022-08-19T00:29:33.956Z,55.1845703125
2022-08-19T00:30:35.098Z,55.158203125
2022-08-19T00:31:34.222Z,55.2021484375
2022-08-19T00:32:33.991Z,55.23828125
2022-08-19T00:33:33.959Z,55.3603515625
2022-08-19T00:34:33.980Z,55.328125
2022-08-19T00:35:33.937Z,55.1376953125
2022-08-19T00:36:34.296Z,55.2392578125
2022-08-19T00:37:34.008Z,55.33984375
2022-08-19T00:38:37.156Z,55.3505859375
2022-08-19T00:39:33.958Z,55.3623046875
2022-08-19T00:40:36.977Z,55.373046875
2022-08-19T00:41:34.215Z,55.4296875
2022-08-19T00:42:34.028Z,55.486328125
2022-08-19T00:43:34.290Z,55.7216796875
2022-08-19T00:44:33.946Z,55.822265625
2022-08-19T00:45:36.505Z,55.8369140625
2022-08-19T00:46:33.946Z,55.703125
2022-08-19T00:47:33.995Z,55.6123046875
2022-08-19T00:48:34.054Z,55.5556640625
2022-08-19T00:49:33.973Z,55.4765625
2022-08-19T00:50:34.287Z,55.4189453125
2022-08-19T00:51:36.980Z,55.5
2022-08-19T00:52:33.942Z,55.587890625
2022-08-19T00:53:34.024Z,55.716796875
2022-08-19T00:54:33.880Z,55.671875
2022-08-19T00:55:34.287Z,55.4130859375
2022-08-19T00:56:34.066Z,55.46484375
2022-08-19T00:57:34.069Z,55.80078125
2022-08-19T00:58:33.905Z,55.9375
2022-08-19T00:59:56.244Z,55.9365234375
2022-08-19T01:00:34.219Z,55.880859375
2022-08-19T01:01:34.121Z,55.80078125
2022-08-19T01:02:33.963Z,55.8369140625
2022-08-19T01:03:58.121Z,55.8232421875
2022-08-19T01:04:33.969Z,55.92578125
2022-08-19T01:05:34.297Z,55.9384765625
2022-08-19T01:06:33.933Z,55.755859375
2022-08-19T01:07:38.134Z,55.8701171875
2022-08-19T01:08:34.006Z,55.9140625
2022-08-19T01:09:33.858Z,55.9375
2022-08-19T01:10:36.842Z,56.1220703125
2022-08-19T01:11:34.293Z,55.806640625
2022-08-19T01:12:34.095Z,55.828125
2022-08-19T01:13:49.060Z,55.703125
2022-08-19T01:14:33.954Z,55.759765625
2022-08-19T01:15:34.223Z,55.7021484375
2022-08-19T01:16:34.022Z,55.6455078125
2022-08-19T01:17:33.948Z,55.767578125
2022-08-19T01:18:36.970Z,56.095703125
2022-08-19T01:19:44.169Z,55.994140625
2022-08-19T01:20:34.210Z,56.1650390625
2022-08-19T01:21:34.055Z,56.0869140625
2022-08-19T01:22:34.177Z,56.0634765625
2022-08-19T01:23:33.985Z,56.0927734375
2022-08-19T01:24:33.983Z,56.1845703125
2022-08-19T01:25:34.363Z,56.072265625
2022-08-19T01:26:34.070Z,56.0693359375
2022-08-19T01:27:43.243Z,56.013671875
2022-08-19T01:28:40.244Z,55.9892578125
2022-08-19T01:29:36.966Z,56.1904296875
2022-08-19T01:30:34.309Z,56.23828125
2022-08-19T01:31:34.087Z,56.1708984375
2022-08-19T01:32:34.281Z,56.3740234375
2022-08-19T01:33:33.985Z,56.3740234375
2022-08-19T01:34:33.972Z,56.2158203125
2022-08-19T01:35:34.224Z,56.3154296875
2022-08-19T01:36:33.960Z,56.328125
2022-08-19T01:37:33.993Z,56.4736328125
2022-08-19T01:38:34.073Z,56.4853515625
2022-08-19T01:39:34.035Z,56.42578125
2022-08-19T01:40:39.899Z,56.416015625
2022-08-19T01:41:34.073Z,56.4931640625
2022-08-19T01:42:34.016Z,56.583984375
2022-08-19T01:43:33.885Z,56.6875
2022-08-19T01:44:33.859Z,56.845703125
2022-08-19T01:45:34.293Z,56.8798828125
2022-08-19T01:46:33.962Z,56.8671875
2022-08-19T01:47:33.962Z,56.98046875
2022-08-19T01:48:34.049Z,56.9921875
2022-08-19T01:49:34.003Z,56.98046875
2022-08-19T01:50:34.294Z,56.9345703125
2022-08-19T01:51:40.051Z,57.0029296875
2022-08-19T01:52:34.051Z,56.8447265625
2022-08-19T01:53:33.973Z,56.8447265625
2022-08-19T01:54:34.025Z,56.912109375
2022-08-19T01:55:34.294Z,57.1015625
2022-08-19T01:56:34.058Z,57.2041015625
2022-08-19T01:57:33.976Z,57.337890625
2022-08-19T01:58:34.213Z,57.5078125
2022-08-19T01:59:33.965Z,57.5625
2022-08-19T02:00:34.219Z,57.6640625
2022-08-19T02:01:34.138Z,57.6875
2022-08-19T02:02:37.008Z,57.6962890625
2022-08-19T02:03:34.036Z,57.8330078125
2022-08-19T02:04:33.943Z,57.9677734375
2022-08-19T02:05:34.216Z,58.0830078125
2022-08-19T02:06:34.015Z,58.0595703125
2022-08-19T02:07:33.966Z,58.1845703125
2022-08-19T02:08:33.980Z,58.0380859375
2022-08-19T02:09:33.945Z,58.013671875
2022-08-19T02:10:34.326Z,57.9345703125
2022-08-19T02:11:34.018Z,58.015625
2022-08-19T02:12:33.954Z,58.0263671875
2022-08-19T02:13:39.924Z,58.0712890625
2022-08-19T02:14:34.023Z,58.1396484375
2022-08-19T02:15:34.320Z,58.1611328125
2022-08-19T02:16:34.041Z,58.2392578125
2022-08-19T02:17:33.868Z,58.306640625
2022-08-19T02:18:33.930Z,58.3525390625
2022-08-19T02:19:33.951Z,58.3525390625
2022-08-19T02:20:34.287Z,58.38671875
2022-08-19T02:21:34.045Z,58.365234375
2022-08-19T02:22:34.002Z,58.3876953125
2022-08-19T02:23:34.037Z,58.263671875
2022-08-19T02:24:36.968Z,58.2431640625
2022-08-19T02:25:34.221Z,58.2109375
2022-08-19T02:26:34.072Z,58.087890625
2022-08-19T02:27:33.962Z,58.0888671875
2022-08-19T02:28:34.288Z,58.4091796875
2022-08-19T02:29:34.026Z,58.19140625
2022-08-19T02:30:34.219Z,58.08984375
2022-08-19T02:31:33.907Z,58.080078125
2022-08-19T02:32:33.857Z,58.0361328125
2022-08-19T02:33:33.958Z,57.9462890625
2022-08-19T02:34:34.044Z,58.013671875
2022-08-19T02:35:39.894Z,58.0693359375
2022-08-19T02:36:34.055Z,58.25
2022-08-19T02:37:35.089Z,58.4326171875
2022-08-19T02:38:33.968Z,58.296875
2022-08-19T02:39:34.160Z,58.2294921875
2022-08-19T02:40:34.477Z,58.1845703125
2022-08-19T02:41:33.979Z,58.2529296875
2022-08-19T02:42:33.993Z,58.2509765625
2022-08-19T02:43:34.598Z,58.322265625
2022-08-19T02:44:33.981Z,58.2548828125
2022-08-19T02:45:34.311Z,58.2802734375
2022-08-19T02:46:36.971Z,58.1650390625
2022-08-19T02:47:34.068Z,58.1650390625
2022-08-19T02:48:34.130Z,58.2099609375
2022-08-19T02:49:34.742Z,58.2646484375
2022-08-19T02:50:34.291Z,58.482421875
2022-08-19T02:51:34.073Z,58.5380859375
2022-08-19T02:52:33.873Z,58.60546875
2022-08-19T02:53:33.966Z,58.62890625
2022-08-19T02:54:33.937Z,58.673828125
2022-08-19T02:55:46.304Z,58.7958984375
2022-08-19T02:56:34.048Z,58.83984375
2022-08-19T02:57:36.950Z,58.953125
2022-08-19T02:58:34.330Z,59.1552734375
2022-08-19T02:59:34.059Z,59.1083984375
2022-08-19T03:00:34.227Z,59.267578125
2022-08-19T03:01:34.206Z,59.37109375
2022-08-19T03:02:34.057Z,59.4951171875
2022-08-19T03:03:33.961Z,59.6083984375
2022-08-19T03:04:33.960Z,59.619140625
2022-08-19T03:05:48.229Z,59.9443359375
2022-08-19T03:06:33.965Z,59.9013671875
2022-08-19T03:07:33.958Z,59.994140625
2022-08-19T03:08:36.972Z,59.880859375
2022-08-19T03:09:34.054Z,59.775390625
2022-08-19T03:10:34.294Z,59.84375
2022-08-19T03:11:33.973Z,59.78515625
2022-08-19T03:12:33.992Z,59.9765625
2022-08-19T03:13:34.218Z,60.1904296875
2022-08-19T03:14:33.855Z,60.2568359375
2022-08-19T03:15:34.336Z,60.357421875
2022-08-19T03:16:34.047Z,60.4375
2022-08-19T03:17:33.949Z,60.3662109375
2022-08-19T03:18:33.956Z,60.6845703125
2022-08-19T03:19:37.005Z,60.84375
2022-08-19T03:20:34.026Z,60.71875
2022-08-19T03:21:34.290Z,60.8642578125
2022-08-19T03:22:34.060Z,61.021484375
2022-08-19T03:23:34.050Z,61.01171875
2022-08-19T03:24:33.883Z,61.16015625
2022-08-19T03:25:33.951Z,61.3896484375
2022-08-19T03:26:34.293Z,61.318359375
2022-08-19T03:27:34.787Z,61.3544921875
2022-08-19T03:28:34.219Z,61.3427734375
2022-08-19T03:29:33.861Z,61.30078125
2022-08-19T03:30:33.945Z,61.15625
2022-08-19T03:31:43.633Z,61.01171875
2022-08-19T03:32:33.973Z,60.8857421875
2022-08-19T03:33:33.955Z,61.001953125
2022-08-19T03:34:33.957Z,60.9892578125
2022-08-19T03:35:36.984Z,60.9765625
2022-08-19T03:36:34.217Z,60.8974609375
2022-08-19T03:37:34.028Z,61.0244140625
2022-08-19T03:38:33.997Z,61.0810546875
2022-08-19T03:39:34.009Z,61.1494140625
2022-08-19T03:40:33.962Z,61.013671875
2022-08-19T03:41:44.212Z,61.05078125
2022-08-19T03:42:48.659Z,60.9140625
2022-08-19T03:43:34.286Z,60.92578125
2022-08-19T03:44:34.034Z,60.857421875
2022-08-19T03:45:34.026Z,60.724609375
2022-08-19T03:46:39.892Z,60.6474609375
2022-08-19T03:47:33.974Z,60.53515625
2022-08-19T03:48:34.040Z,60.5322265625
2022-08-19T03:49:33.857Z,60.6572265625
2022-08-19T03:50:33.835Z,60.7138671875
2022-08-19T03:51:34.291Z,60.658203125
2022-08-19T03:52:34.025Z,60.6572265625
2022-08-19T03:53:33.991Z,60.7705078125
2022-08-19T03:54:33.869Z,60.6865234375
2022-08-19T03:55:33.996Z,60.7783203125
2022-08-19T03:56:34.207Z,60.9697265625
2022-08-19T03:57:33.988Z,61.046875
2022-08-19T03:58:34.287Z,61.1826171875
2022-08-19T03:59:34.029Z,61.3203125
2022-08-19T04:00:34.000Z,61.3642578125
2022-08-19T04:01:35.477Z,61.5068359375
2022-08-19T04:02:37.008Z,61.392578125
2022-08-19T04:03:34.043Z,61.435546875
2022-08-19T04:04:33.984Z,61.6630859375
2022-08-19T04:05:34.004Z,61.650390625
2022-08-19T04:06:34.310Z,61.673828125
2022-08-19T04:07:34.008Z,61.7626953125
2022-08-19T04:08:36.985Z,61.7275390625
2022-08-19T04:09:34.048Z,61.7490234375
2022-08-19T04:10:33.936Z,61.7705078125
2022-08-19T04:11:43.411Z,61.814453125
2022-08-19T04:12:34.041Z,61.8486328125
2022-08-19T04:13:34.217Z,61.8818359375
2022-08-19T04:14:33.961Z,61.9267578125
2022-08-19T04:15:33.994Z,61.9580078125
2022-08-19T04:16:35.270Z,62.013671875
2022-08-19T04:17:34.021Z,62.1357421875
2022-08-19T04:18:36.394Z,62.21484375
2022-08-19T04:19:36.889Z,62.330078125
2022-08-19T04:20:33.970Z,62.46484375
2022-08-19T04:21:33.974Z,62.46484375
2022-08-19T04:22:34.069Z,62.3623046875
2022-08-19T04:23:33.940Z,62.248046875
2022-08-19T04:24:34.005Z,62.23828125
2022-08-19T04:25:33.963Z,62.0029296875
2022-08-19T04:26:34.040Z,61.9248046875
2022-08-19T04:27:33.984Z,61.8359375
2022-08-19T04:28:34.219Z,61.6552734375
2022-08-19T04:29:34.004Z,61.7568359375
2022-08-19T04:30:36.980Z,61.7900390625
2022-08-19T04:31:34.209Z,61.8896484375
2022-08-19T04:32:33.964Z,61.9345703125
2022-08-19T04:33:33.847Z,62.01171875
2022-08-19T04:34:34.008Z,62.212890625
2022-08-19T04:35:33.837Z,62.14453125
2022-08-19T04:36:34.219Z,62.16796875
2022-08-19T04:37:34.852Z,62.3056640625
2022-08-19T04:38:33.978Z,62.330078125
2022-08-19T04:39:33.982Z,62.3623046875
2022-08-19T04:40:34.026Z,62.2958984375
2022-08-19T04:41:34.215Z,62.384765625
2022-08-19T04:42:33.980Z,62.21484375
2022-08-19T04:43:34.292Z,62.16015625
2022-08-19T04:44:35.256Z,62.05078125
2022-08-19T04:45:39.519Z,61.8603515625
2022-08-19T04:46:51.218Z,61.6826171875
2022-08-19T04:47:49.381Z,61.5029296875
2022-08-19T04:48:35.330Z,61.2314453125
2022-08-19T04:49:34.073Z,61.12109375
2022-08-19T04:50:33.953Z,60.94140625
2022-08-19T04:51:34.293Z,60.7978515625
2022-08-19T04:52:33.989Z,60.62890625
2022-08-19T04:53:37.680Z,60.458984375
2022-08-19T04:54:38.782Z,60.2783203125
2022-08-19T04:55:38.225Z,60.298828125
2022-08-19T04:56:34.209Z,60.42578125
2022-08-19T04:57:33.966Z,60.287109375
2022-08-19T04:58:34.282Z,60.3681640625
2022-08-19T04:59:34.079Z,60.310546875
2022-08-19T05:00:33.937Z,60.298828125
2022-08-19T05:01:34.287Z,60.2529296875
2022-08-19T05:02:36.964Z,60.365234375
2022-08-19T05:03:34.020Z,60.3232421875
2022-08-19T05:04:33.999Z,60.2451171875
2022-08-19T05:05:44.858Z,60.0439453125
2022-08-19T05:06:34.296Z,59.9208984375
2022-08-19T05:07:34.060Z,59.7392578125
2022-08-19T05:08:33.862Z,59.7392578125
2022-08-19T05:09:56.562Z,59.607421875
2022-08-19T05:10:33.929Z,59.4189453125
2022-08-19T05:11:34.219Z,59.2626953125
2022-08-19T05:12:34.025Z,59.04296875
2022-08-19T05:13:34.218Z,58.8583984375
2022-08-19T05:14:33.940Z,58.736328125
2022-08-19T05:15:33.964Z,58.59765625
2022-08-19T05:16:34.227Z,58.595703125
2022-08-19T05:17:38.265Z,58.5419921875
2022-08-19T05:18:36.921Z,58.38671875
2022-08-19T05:19:33.950Z,58.4189453125
2022-08-19T05:20:33.976Z,58.4111328125
2022-08-19T05:21:34.052Z,58.1298828125
2022-08-19T05:22:34.024Z,57.880859375
2022-08-19T05:23:33.961Z,57.580078125
2022-08-19T05:24:33.967Z,57.2421875
2022-08-19T05:25:33.948Z,56.8271484375
2022-08-19T05:26:34.225Z,56.193359375
2022-08-19T05:27:33.950Z,56.5078125
2022-08-19T05:28:34.281Z,56.7177734375
2022-08-19T05:29:36.935Z,56.94140625
2022-08-19T05:30:46.851Z,57.01171875
2022-08-19T05:31:34.282Z,56.92578125
2022-08-19T05:32:34.065Z,56.7998046875
2022-08-19T05:33:34.018Z,56.806640625
2022-08-19T05:34:34.006Z,56.40234375
2022-08-19T05:35:34.635Z,55.826171875
2022-08-19T05:36:34.290Z,55.474609375
2022-08-19T05:37:34.028Z,55.552734375
2022-08-19T05:38:33.959Z,55.5546875
2022-08-19T05:39:34.061Z,55.1259765625
2022-08-19T05:40:36.960Z,54.9873046875
2022-08-19T05:41:34.213Z,55.39453125
2022-08-19T05:42:34.018Z,55.521484375
2022-08-19T05:43:34.295Z,55.2216796875
2022-08-19T05:44:34.036Z,54.7607421875
2022-08-19T05:45:33.902Z,54.5986328125
2022-08-19T05:46:34.212Z,54.728515625
2022-08-19T05:47:33.955Z,55.2939453125
2022-08-19T05:48:34.043Z,55.4560546875
2022-08-19T05:49:33.968Z,55.18359375
2022-08-19T05:50:34.228Z,55.0029296875
2022-08-19T05:51:36.953Z,55.1435546875
2022-08-19T05:52:34.049Z,54.97265625
2022-08-19T05:53:33.935Z,54.8935546875
2022-08-19T05:54:33.994Z,54.689453125
2022-08-19T05:55:34.214Z,54.37890625
2022-08-19T05:56:34.072Z,53.7392578125
2022-08-19T05:57:33.965Z,52.59375
2022-08-19T05:58:34.329Z,51.3740234375
2022-08-19T05:59:33.947Z,50.21484375
2022-08-19T06:00:34.294Z,48.6533203125
2022-08-19T06:01:34.209Z,47.919921875
2022-08-19T06:02:36.940Z,46.3798828125
2022-08-19T06:03:33.949Z,44.8681640625
2022-08-19T06:04:33.966Z,43.6416015625
2022-08-19T06:05:34.284Z,44.2705078125
2022-08-19T06:06:34.019Z,44.0009765625
2022-08-19T06:08:42.026Z,41.9716796875
2022-08-19T06:09:43.695Z,41.4365234375
2022-08-19T06:10:42.408Z,40.498046875
2022-08-19T06:11:42.047Z,39.6943359375
2022-08-19T06:12:42.057Z,39.4462890625
2022-08-19T06:13:48.257Z,38.3896484375
2022-08-19T06:14:42.117Z,37.994140625
2022-08-19T06:15:42.402Z,38.4501953125
2022-08-19T06:16:42.064Z,37.66796875
2022-08-19T06:17:41.973Z,35.9736328125
2022-08-19T06:18:42.082Z,34.1572265625
2022-08-19T06:19:41.963Z,32.7412109375
2022-08-19T06:20:55.479Z,31.505859375
2022-08-19T06:21:42.166Z,32.669921875
2022-08-19T06:22:41.948Z,33.2216796875
2022-08-19T06:23:42.043Z,33.63671875
2022-08-19T06:24:45.115Z,33.0302734375
2022-08-19T06:25:42.387Z,32.4140625
2022-08-19T06:26:42.180Z,32.1708984375
2022-08-19T06:27:53.038Z,32.673828125
2022-08-19T06:28:42.475Z,31.9638671875
2022-08-19T06:29:42.158Z,31.8349609375
2022-08-19T06:30:42.064Z,31.2783203125
2022-08-19T06:31:42.395Z,30.54296875
2022-08-19T06:32:42.984Z,30.177734375
2022-08-19T06:33:41.967Z,30.71484375
2022-08-19T06:34:42.061Z,30.8505859375
2022-08-19T06:36:52.196Z,31.3193359375
2022-08-19T06:37:51.778Z,31.82421875
2022-08-19T06:38:51.899Z,32.7705078125
2022-08-19T06:39:51.957Z,32.5947265625
2022-08-19T06:40:51.766Z,32.3173828125
2022-08-19T06:41:58.953Z,31.1826171875
2022-08-19T06:42:54.440Z,31.1201171875
2022-08-19T06:43:52.544Z,31.6611328125
2022-08-19T06:44:53.591Z,34.3916015625
2022-08-19T06:45:51.858Z,36.7646484375
2022-08-19T06:46:54.593Z,38.5390625
2022-08-19T06:47:51.895Z,39.396484375
2022-08-19T06:48:51.891Z,40.8388671875
2022-08-19T06:49:51.840Z,41.638671875
2022-08-19T06:50:51.912Z,41.6064453125
2022-08-19T06:51:51.976Z,41.90234375
2022-08-19T06:52:54.983Z,42.3740234375
2022-08-19T06:54:59.705Z,41.806640625
2022-08-19T06:55:58.557Z,41.787109375
2022-08-19T06:56:58.889Z,41.3642578125
2022-08-19T06:57:58.561Z,42.166015625
2022-08-19T06:58:58.902Z,42.6982421875
2022-08-19T07:00:01.602Z,41.4462890625
2022-08-19T07:00:58.550Z,40.1396484375
2022-08-19T07:01:58.894Z,36.71484375
2022-08-19T07:03:00.215Z,35.0361328125
2022-08-19T07:03:58.545Z,34.5400390625
2022-08-19T07:04:58.582Z,33.61328125
2022-08-19T07:06:01.447Z,32.8623046875
2022-08-19T07:06:58.813Z,32.173828125
2022-08-19T07:08:02.891Z,32.625
2022-08-19T07:08:58.466Z,32.4501953125
2022-08-19T07:10:01.034Z,32.498046875
2022-08-19T07:10:58.636Z,30.7451171875
2022-08-19T07:11:58.815Z,30.126953125
2022-08-19T07:12:58.456Z,28.4052734375
2022-08-19T07:13:58.888Z,25.6982421875
2022-08-19T07:14:58.703Z,25.6220703125
2022-08-19T07:15:58.524Z,25.939453125
2022-08-19T07:17:01.603Z,24.2421875
2022-08-19T07:17:58.539Z,23.2197265625
2022-08-19T07:18:58.546Z,23.04296875
2022-08-19T07:19:58.610Z,23.2431640625
2022-08-19T07:20:58.593Z,23.623046875
2022-08-19T07:21:58.917Z,24.2197265625
2022-08-19T07:22:58.562Z,23.650390625
2022-08-19T07:23:58.483Z,23.5517578125
2022-08-19T07:24:58.658Z,25.294921875
2022-08-19T07:25:58.726Z,27.712890625
2022-08-19T07:26:58.889Z,29.5419921875
2022-08-19T07:28:01.811Z,30.9326171875
2022-08-19T07:28:58.641Z,30.4716796875
2022-08-19T07:29:59.770Z,29.1962890625
2022-08-19T07:30:58.631Z,29.10546875
2022-08-19T07:31:58.880Z,29.2548828125
2022-08-19T07:32:58.662Z,30.1162109375
2022-08-19T07:33:58.590Z,27.42578125
2022-08-19T07:34:58.589Z,26.6533203125
2022-08-19T07:35:58.671Z,24.818359375
2022-08-19T07:36:58.818Z,22.8681640625
2022-08-19T07:37:58.664Z,22.03515625
2022-08-19T07:39:01.492Z,22.10546875
2022-08-19T07:39:58.706Z,21.14453125
2022-08-19T07:40:58.620Z,20.931640625
2022-08-19T07:41:58.882Z,20.0634765625
2022-08-19T07:42:58.607Z,19.744140625
2022-08-19T07:43:58.884Z,20.4287109375
2022-08-19T07:44:58.442Z,23.43359375
2022-08-19T07:45:58.677Z,25.98046875
2022-08-19T07:46:58.825Z,27.091796875
2022-08-19T07:47:58.945Z,30.4365234375
2022-08-19T07:48:58.661Z,31.69921875
2022-08-19T07:50:01.639Z,31.71484375
2022-08-19T07:50:58.534Z,31.4853515625
2022-08-19T07:51:58.884Z,31.435546875
2022-08-19T07:52:58.617Z,32.4765625
2022-08-19T07:53:58.589Z,32.556640625
2022-08-19T07:54:58.619Z,32.591796875
2022-08-19T07:55:58.467Z,32.638671875
2022-08-19T07:56:58.887Z,32.421875
2022-08-19T07:57:58.639Z,32.294921875
2022-08-19T07:58:58.897Z,32.5439453125
2022-08-19T07:59:58.656Z,32.7158203125
2022-08-19T08:01:01.497Z,33.0166015625
2022-08-19T08:01:58.965Z,33.7783203125
2022-08-19T08:02:58.660Z,34.5576171875
2022-08-19T08:03:58.482Z,34.810546875
2022-08-19T08:04:58.590Z,35.8046875
2022-08-19T08:05:58.609Z,35.8671875
2022-08-19T08:06:58.838Z,35.3173828125
2022-08-19T08:07:58.583Z,34.8720703125
2022-08-19T08:08:58.670Z,34.1171875
2022-08-19T08:09:58.614Z,33.232421875
2022-08-19T08:10:58.583Z,33.064453125
2022-08-19T08:12:17.963Z,31.5478515625
2022-08-19T08:13:10.161Z,31.1796875
2022-08-19T08:14:01.031Z,30.8056640625
2022-08-19T08:14:58.519Z,31.37890625
2022-08-19T08:15:58.544Z,32.2197265625
2022-08-19T08:16:59.213Z,32.60546875
2022-08-19T08:17:58.459Z,33.0615234375
2022-08-19T08:18:58.459Z,32.9853515625
2022-08-19T08:19:58.659Z,32.27734375
2022-08-19T08:20:58.608Z,32.0927734375
2022-08-19T08:21:58.589Z,32.240234375
2022-08-19T08:22:58.429Z,33.119140625
2022-08-19T08:25:05.364Z,32.1298828125
2022-08-19T08:26:05.410Z,31.771484375
2022-08-19T08:27:11.447Z,31.3203125
2022-08-19T08:28:05.474Z,31.6455078125
2022-08-19T08:29:12.489Z,32.5361328125
2022-08-19T08:30:08.381Z,32.9521484375
2022-08-19T08:31:09.642Z,32.7724609375
2022-08-19T08:32:14.836Z,32.40234375
2022-08-19T08:33:05.517Z,32.904296875
2022-08-19T08:34:05.453Z,33.44921875
2022-08-19T08:35:05.524Z,32.9189453125
2022-08-19T08:36:05.395Z,31.9609375
2022-08-19T08:37:05.756Z,31.630859375
2022-08-19T08:38:05.486Z,30.314453125
2022-08-19T08:39:05.421Z,29.947265625
2022-08-19T08:40:06.630Z,29.833984375
2022-08-19T08:41:11.396Z,31.05859375
2022-08-19T08:42:10.472Z,32.1337890625
2022-08-19T08:44:17.221Z,31.58984375
2022-08-19T08:45:12.118Z,31.27734375
2022-08-19T08:46:12.513Z,30.7841796875
2022-08-19T08:47:12.126Z,29.9501953125
2022-08-19T08:48:21.893Z,29.400390625
2022-08-19T08:49:15.128Z,29.5634765625
2022-08-19T08:50:12.097Z,29.9814453125
2022-08-19T08:51:12.486Z,30.083984375
2022-08-19T08:52:12.032Z,30.2119140625
2022-08-19T08:53:12.066Z,29.9208984375
2022-08-19T08:54:12.076Z,30.9228515625
2022-08-19T08:55:12.085Z,31.6484375
2022-08-19T08:56:12.425Z,32.0126953125
2022-08-19T08:57:12.137Z,32.0791015625
2022-08-19T08:58:12.081Z,30.9736328125
2022-08-19T08:59:12.162Z,29.3515625
2022-08-19T09:00:15.546Z,29.2001953125
2022-08-19T09:01:12.374Z,29.9404296875
2022-08-19T09:02:12.184Z,29.84375
2022-08-19T09:03:12.154Z,29.509765625
2022-08-19T09:04:12.095Z,28.958984375
2022-08-19T09:05:16.873Z,29.2880859375
2022-08-19T09:06:12.368Z,28.365234375
2022-08-19T09:07:18.653Z,27.591796875
2022-08-19T09:08:12.183Z,27.1396484375
2022-08-19T09:09:12.489Z,27.328125
2022-08-19T09:10:12.072Z,27.4775390625
2022-08-19T09:11:42.374Z,27.927734375
2022-08-19T09:12:12.078Z,28.181640625
2022-08-19T09:13:12.101Z,28.318359375
2022-08-19T09:14:29.247Z,27.9599609375
2022-08-19T09:15:12.157Z,27.8359375
2022-08-19T09:16:12.417Z,28.3896484375
2022-08-19T09:17:12.069Z,28.47265625
2022-08-19T09:18:15.323Z,28.779296875
2022-08-19T09:19:12.150Z,29.158203125
2022-08-19T09:20:11.993Z,28.861328125
2022-08-19T09:21:12.505Z,27.75390625
2022-08-19T09:22:15.054Z,26.55078125
2022-08-19T09:23:12.153Z,26.69921875
2022-08-19T09:24:12.091Z,26.8701171875
2022-08-19T09:25:12.047Z,25.650390625
2022-08-19T09:26:12.421Z,24.4130859375
2022-08-19T09:27:18.714Z,23.5146484375
2022-08-19T09:28:22.132Z,22.748046875
2022-08-19T09:29:12.086Z,22.0595703125
2022-08-19T09:30:12.127Z,21.37890625
2022-08-19T09:31:12.419Z,20.8427734375
2022-08-19T09:32:26.577Z,20.09765625
2022-08-19T09:33:15.102Z,21.0478515625
2022-08-19T09:34:21.231Z,21.2724609375
2022-08-19T09:35:12.182Z,23.6201171875
2022-08-19T09:36:12.347Z,25.0595703125
2022-08-19T09:37:12.162Z,25.8720703125
2022-08-19T09:38:14.934Z,25.865234375
2022-08-19T09:39:16.356Z,25.6962890625
2022-08-19T09:40:12.487Z,25.583984375
2022-08-19T09:41:12.171Z,24.45703125
2022-08-19T09:42:16.623Z,23.1181640625
2022-08-19T09:43:13.391Z,21.693359375
2022-08-19T09:44:15.076Z,20.9248046875
2022-08-19T09:45:12.350Z,20.625
2022-08-19T09:46:15.692Z,20.681640625
2022-08-19T09:47:12.153Z,21.220703125
2022-08-19T09:48:11.970Z,21.5048828125
2022-08-19T09:49:12.105Z,22.68359375
2022-08-19T09:50:16.553Z,24.1640625
2022-08-19T09:51:12.171Z,24.85546875
2022-08-19T09:52:13.650Z,25.2666015625
2022-08-19T09:53:12.055Z,25.09375
2022-08-19T09:54:12.097Z,24.9638671875
2022-08-19T09:55:12.342Z,24.8125
2022-08-19T09:56:11.938Z,25.2548828125
2022-08-19T09:57:11.974Z,26.40625
2022-08-19T09:58:12.008Z,27.7138671875
2022-08-19T09:59:12.131Z,28.052734375
2022-08-19T10:00:11.995Z,27.869140625
2022-08-19T10:01:18.071Z,28.9267578125
2022-08-19T10:02:12.168Z,28.6181640625
2022-08-19T10:03:12.148Z,27.9111328125
2022-08-19T10:04:19.845Z,27.033203125
2022-08-19T10:05:12.413Z,26.1953125
2022-08-19T10:06:15.112Z,26.099609375
2022-08-19T10:07:12.087Z,25.9892578125
2022-08-19T10:08:13.004Z,25.7353515625
2022-08-19T10:09:11.980Z,26.228515625
2022-08-19T10:10:12.110Z,25.3330078125
2022-08-19T10:11:27.416Z,25.125
2022-08-19T10:12:15.013Z,24.3701171875
2022-08-19T10:13:12.137Z,23.3525390625
2022-08-19T10:14:12.117Z,22.66796875
2022-08-19T10:15:33.370Z,22.2138671875
2022-08-19T10:16:12.345Z,21.96875
2022-08-19T10:17:17.578Z,21.4189453125
2022-08-19T10:18:11.963Z,21.33203125
2022-08-19T10:19:12.114Z,21.5634765625
2022-08-19T10:20:12.028Z,22.755859375
2022-08-19T10:21:12.004Z,23.6240234375
2022-08-19T10:22:12.212Z,23.484375
2022-08-19T10:23:15.084Z,23.6494140625
2022-08-19T10:24:12.263Z,24.220703125
2022-08-19T10:25:12.377Z,24.046875
2022-08-19T10:26:12.153Z,23.5830078125
2022-08-19T10:27:12.077Z,23.08984375
2022-08-19T10:28:11.972Z,23.8369140625
2022-08-19T10:29:12.063Z,25.0361328125
2022-08-19T10:30:12.435Z,26.0068359375
2022-08-19T10:31:12.356Z,27.541015625
2022-08-19T10:32:12.151Z,28.8515625
2022-08-19T10:33:12.006Z,28.3291015625
2022-08-19T10:34:27.016Z,27.2587890625
2022-08-19T10:35:12.402Z,26.0859375
2022-08-19T10:36:12.181Z,24.638671875